Stations météo

Publicité
Chateau Chinon, France (7270): Température de l'air & dewpoint: 16.08.2018 01:00:00 - 22.08.2018 01:00:00 (CEST)Chateau Chinon, France (7270): Vitesse du vent & gusts: 16.08.2018 01:00:00 - 22.08.2018 01:00:00 (CEST)Chateau Chinon, France (7270): Direction du vent: 16.08.2018 01:00:00 - 22.08.2018 01:00:00 (CEST)Chateau Chinon, France (7270): Quantités de précipitations: 16.08.2018 01:00:00 - 22.08.2018 01:00:00 (CEST)
Date & Time tt [°C] td [°C] ff [km/h] ff [knt] fx [km/h] fx [knt] dd rr [mm]
22.08.2018 01:00:00 19,0 13,6 4 2 22 12 E 0,0
22.08.2018 00:00:00 18,8 13,4 4 2 24 13 E 0,0
21.08.2018 23:00:00 20,4 13,4 5 3 28 15 ENE 0,0
21.08.2018 22:00:00 20,1 13,5 5 3 22 12 ENE 0,0
21.08.2018 21:00:00 21,7 13,3 4 2 21 11 ENE 0,0
21.08.2018 20:00:00 23,8 13,3 4 2 22 12 ENE -
21.08.2018 19:00:00 27,5 11,9 4 2 15 8 ENE 0,0
21.08.2018 18:00:00 28,4 11,9 4 2 16 9 ENE 0,0
21.08.2018 17:00:00 27,8 12,6 5 3 18 10 NE 0,0
21.08.2018 16:00:00 27,8 13,0 5 3 18 10 NNE 0,0
21.08.2018 15:00:00 27,3 13,3 4 2 18 10 SSW 0,0
21.08.2018 14:00:00 26,3 13,4 5 3 18 10 NNE -
21.08.2018 13:00:00 25,1 13,3 4 2 18 10 NE 0,0
21.08.2018 12:00:00 24,0 14,4 4 2 16 9 N 0,0
21.08.2018 11:00:00 23,2 14,2 4 2 16 9 ENE 0,0
21.08.2018 10:00:00 22,6 14,9 4 2 16 9 ENE 0,0
21.08.2018 09:00:00 20,8 15,1 4 2 13 7 E 0,0
21.08.2018 08:00:00 16,8 15,3 2 1 13 7 E -
21.08.2018 07:00:00 15,5 14,5 4 2 16 9 E 0,0
21.08.2018 06:00:00 15,6 14,6 4 2 16 9 E 0,0
21.08.2018 05:00:00 15,8 14,5 4 2 11 6 E 0,0
21.08.2018 04:00:00 16,4 14,6 4 2 22 12 E 0,0
21.08.2018 03:00:00 16,8 14,6 8 4 26 14 E 0,0
21.08.2018 02:00:00 16,0 14,2 5 3 15 8 ENE -
21.08.2018 01:00:00 16,3 14,0 4 2 18 10 ENE 0,0
21.08.2018 00:00:00 16,9 14,4 4 2 15 8 E 0,0
20.08.2018 23:00:00 17,8 14,3 4 2 13 7 ENE 0,0
20.08.2018 22:00:00 19,0 14,3 4 2 22 12 NE 0,0
20.08.2018 21:00:00 20,3 14,2 4 2 21 11 NNE 0,0
20.08.2018 20:00:00 21,9 14,0 4 2 18 10 NNW -
20.08.2018 19:00:00 25,3 13,8 4 2 22 12 NW 0,0
20.08.2018 18:00:00 26,3 14,1 4 2 21 11 NW 0,0
20.08.2018 17:00:00 26,9 14,0 4 2 21 11 N 0,0
20.08.2018 16:00:00 27,1 14,5 5 3 22 12 NW 0,0
20.08.2018 15:00:00 27,3 12,5 5 3 18 10 N 0,0
20.08.2018 14:00:00 26,9 11,8 4 2 16 9 NW -
20.08.2018 13:00:00 25,4 11,2 4 2 18 10 WNW 0,0
20.08.2018 12:00:00 24,7 13,6 4 2 15 8 W 0,0
20.08.2018 11:00:00 22,8 13,0 4 2 13 7 W 0,0
20.08.2018 10:00:00 21,8 12,4 4 2 8 4 W 0,0
20.08.2018 09:00:00 21,3 11,9 2 1 5 3 W 0,0
20.08.2018 08:00:00 18,3 11,6 4 2 8 4 SSE -
20.08.2018 07:00:00 17,8 11,1 4 2 9 5 ESE 0,0
20.08.2018 06:00:00 17,9 11,0 2 1 8 4 NE 0,0
20.08.2018 05:00:00 17,8 11,4 2 1 8 4 ENE 0,0
20.08.2018 04:00:00 18,0 11,3 2 1 8 4 ENE 0,0
20.08.2018 03:00:00 18,5 11,1 4 2 11 6 E 0,0
20.08.2018 02:00:00 18,7 11,0 4 2 13 7 E -
20.08.2018 01:00:00 18,9 10,5 4 2 11 6 E 0,0
20.08.2018 00:00:00 19,1 10,1 4 2 11 6 E 0,0
19.08.2018 23:00:00 18,8 10,4 2 1 8 4 NE 0,0
19.08.2018 22:00:00 18,8 10,1 0 0 9 5 N 0,0
19.08.2018 21:00:00 20,9 9,5 4 2 18 10 WNW 0,0
19.08.2018 20:00:00 22,4 9,5 2 1 16 9 NW -
19.08.2018 19:00:00 26,0 8,5 4 2 16 9 N 0,0
19.08.2018 18:00:00 26,5 8,0 4 2 18 10 N 0,0
19.08.2018 17:00:00 26,8 8,2 4 2 18 10 WNW 0,0
19.08.2018 16:00:00 26,5 8,5 4 2 16 9 N 0,0
19.08.2018 15:00:00 25,9 8,4 4 2 15 8 SSW 0,0
19.08.2018 14:00:00 24,9 10,0 5 3 16 9 NNE -
19.08.2018 13:00:00 23,8 8,2 5 3 16 9 NE 0,0
19.08.2018 12:00:00 23,5 9,8 4 2 13 7 WNW 0,0
19.08.2018 11:00:00 22,2 10,3 4 2 13 7 WNW 0,0
19.08.2018 10:00:00 21,7 10,2 2 1 11 6 W 0,0
19.08.2018 09:00:00 21,1 8,7 2 1 9 5 ENE 0,0
19.08.2018 08:00:00 16,8 8,2 2 1 8 4 ESE -
19.08.2018 07:00:00 15,4 7,2 4 2 11 6 ESE 0,0
19.08.2018 06:00:00 16,0 7,2 5 3 9 5 SE 0,0
19.08.2018 05:00:00 15,6 7,1 4 2 11 6 ESE 0,0
19.08.2018 04:00:00 15,1 7,4 4 2 9 5 E 0,0
19.08.2018 03:00:00 15,0 7,5 4 2 13 7 E 0,0
19.08.2018 02:00:00 14,6 7,4 4 2 9 5 E -
19.08.2018 01:00:00 15,3 7,3 4 2 15 8 E 0,0
19.08.2018 00:00:00 15,6 7,4 4 2 13 7 E 0,0
18.08.2018 23:00:00 16,3 7,0 2 1 13 7 E 0,0
18.08.2018 22:00:00 17,0 7,1 4 2 18 10 E 0,0
18.08.2018 21:00:00 18,2 6,7 4 2 15 8 NNE 0,0
18.08.2018 20:00:00 20,4 7,0 2 1 13 7 WNW -
18.08.2018 19:00:00 24,1 5,4 2 1 22 12 N 0,0
18.08.2018 18:00:00 24,2 6,0 4 2 18 10 NW 0,0
18.08.2018 17:00:00 23,2 7,3 4 2 16 9 N 0,0
18.08.2018 16:00:00 23,7 5,6 5 3 22 12 N 0,0
18.08.2018 15:00:00 23,6 7,2 4 2 22 12 N 0,0
18.08.2018 14:00:00 23,0 6,7 4 2 26 14 N -
18.08.2018 13:00:00 22,4 7,8 5 3 21 11 N 0,0
18.08.2018 12:00:00 21,7 7,5 5 3 22 12 NNW 0,0
18.08.2018 11:00:00 21,3 8,2 4 2 16 9 N 0,0
18.08.2018 10:00:00 20,2 9,1 4 2 21 11 E 0,0
18.08.2018 09:00:00 18,4 9,7 5 3 18 10 ENE 0,0
18.08.2018 08:00:00 15,0 9,6 4 2 18 10 E -
18.08.2018 07:00:00 12,7 8,6 4 2 22 12 ENE 0,0
18.08.2018 06:00:00 13,4 8,5 4 2 24 13 ENE 0,0
18.08.2018 05:00:00 13,6 8,6 4 2 26 14 E 0,0
18.08.2018 04:00:00 13,9 8,9 4 2 26 14 ENE 0,0
18.08.2018 03:00:00 13,7 9,3 5 3 22 12 ENE 0,0
18.08.2018 02:00:00 14,0 10,2 4 2 13 7 ENE -
18.08.2018 01:00:00 15,8 10,8 4 2 16 9 ENE 0,0
18.08.2018 00:00:00 15,9 11,3 4 2 16 9 ENE 0,0
17.08.2018 23:00:00 15,8 11,4 4 2 15 8 NE 0,0
17.08.2018 22:00:00 16,8 11,9 2 1 15 8 ENE 0,0
17.08.2018 21:00:00 17,6 11,8 4 2 18 10 NW 0,0
17.08.2018 20:00:00 19,1 11,6 4 2 18 10 N -
17.08.2018 19:00:00 20,2 12,7 4 2 24 13 NW 0,0
17.08.2018 18:00:00 21,1 13,0 4 2 26 14 NW 0,0
17.08.2018 17:00:00 21,6 12,7 5 3 26 14 NNE 0,0
17.08.2018 16:00:00 23,0 13,7 4 2 22 12 NW 0,0
17.08.2018 15:00:00 21,7 13,3 4 2 22 12 NNW 0,0
17.08.2018 14:00:00 20,7 13,9 4 2 18 10 WNW -
17.08.2018 13:00:00 21,3 13,5 5 3 18 10 NNW 0,0
17.08.2018 12:00:00 20,0 13,2 4 2 13 7 N 0,0
17.08.2018 11:00:00 20,7 12,4 4 2 18 10 NW 0,0
17.08.2018 10:00:00 18,8 12,5 5 3 31 17 N 0,0
17.08.2018 09:00:00 16,4 13,1 5 3 26 14 NNE 0,0
17.08.2018 08:00:00 15,1 14,0 5 3 29 16 NE -
17.08.2018 07:00:00 15,0 13,9 9 5 28 15 NE 0,0
17.08.2018 06:00:00 14,9 13,8 5 3 21 11 NE 0,0
17.08.2018 05:00:00 16,3 13,6 5 3 18 10 N 0,0
17.08.2018 04:00:00 18,3 11,1 4 2 13 7 NNE 0,0
17.08.2018 03:00:00 18,9 11,2 2 1 16 9 NNE 0,0
17.08.2018 02:00:00 20,6 10,4 4 2 13 7 SSE -
17.08.2018 01:00:00 21,0 10,2 5 3 13 7 SSE 0,0
17.08.2018 00:00:00 21,3 9,8 4 2 11 6 SSE 0,0
16.08.2018 23:00:00 22,0 10,2 5 3 9 5 SSE 0,0
16.08.2018 22:00:00 22,0 11,4 4 2 8 4 SE 0,0
16.08.2018 21:00:00 21,3 11,3 0 0 5 3 N 0,0
16.08.2018 20:00:00 24,1 13,6 0 0 11 6 N -
16.08.2018 19:00:00 27,8 11,8 0 0 11 6 N 0,0
16.08.2018 18:00:00 28,8 10,5 2 1 13 7 N 0,0
16.08.2018 17:00:00 28,7 11,7 4 2 13 7 SW 0,0
16.08.2018 16:00:00 28,0 11,9 4 2 18 10 WNW 0,0
16.08.2018 15:00:00 27,2 13,5 5 3 16 9 W 0,0
16.08.2018 14:00:00 26,8 13,2 4 2 13 7 SW -
16.08.2018 13:00:00 25,2 13,7 4 2 16 9 SW 0,0
16.08.2018 12:00:00 25,1 14,8 4 2 15 8 WSW 0,0
16.08.2018 11:00:00 24,0 12,3 4 2 13 7 SE 0,0
16.08.2018 10:00:00 22,8 14,4 4 2 15 8 SE 0,0
16.08.2018 09:00:00 21,4 13,6 4 2 15 8 ESE 0,0
16.08.2018 08:00:00 18,6 13,0 5 3 16 9 ESE -
16.08.2018 07:00:00 15,8 12,5 4 2 15 8 ESE 0,2
16.08.2018 06:00:00 15,9 12,5 4 2 15 8 ESE 0,0
16.08.2018 05:00:00 16,3 12,5 4 2 16 9 ESE 0,0
16.08.2018 04:00:00 16,4 12,6 5 3 13 7 SE 0,0
16.08.2018 03:00:00 15,9 12,8 4 2 11 6 E 0,0
16.08.2018 02:00:00 16,0 12,7 4 2 11 6 E -
16.08.2018 01:00:00 16,4 12,7 2 1 8 4 E 0,0

tt = Température de l'air
td = dewpoint
ff = Vitesse du vent
fx = gusts
dd = Direction du vent
rr = Quantités de précipitations

stations d'obs. à proximité